首页
METAR-TAF:

METAR-TAF

机场 :

Andrews-Murphy Airport

Andrews, 北卡罗来纳州, 美国

纬度: 35-11-42N, 经度: 083-51-49W, 海拔: 517米

当前天气观测

该预报发布于16分钟前的23:00 UTC
风速7节,风向北转西北
温度 13°C
湿度 58%
气压 1021 hPa
能見度: 16.1公里
多云层高于4700英尺
多云层高于7500英尺

METAR: KRHP 262300Z AUTO 34007KT 10SM BKN047 BKN075 13/05 A3014 RMK AO2 T01260048

时间: 19:16 (23:16 UTC)


TAF: 丢失

超过4000个机场的气象观测和天气预报(METAR&TAF报告)。

可查询的气象台以黄色和红色小点在地图上表示。

将鼠标移到小点上方,可查看气象台名称。

然后点击查看天气观测和预报。

如需切换地图:点击带黑十字的绿色按钮放大地图;点击带横线的绿色按钮缩小地图;或者点击绿色箭头查看邻近地区的地图。


METAR-TAF: